메인 페이지
METAR-TAF:

METAR-TAF

공항 :

엘살바도르, 엘살바도르

엘살바도르 국제공항

위도: 13-26N, 경도: 089-03W, 고도: 25m

현재 날씨관측

예보는 17분 전, 04:50시(UTC)에 발표되었습니다.
여러 방향의 바람 2kt
온도 27°C
습도 89%
기압 1013 hPa
시정 10km 이상
고도 2700ft 상공 구름 조금
고도 4000ft 상공 구름 조금, 적란운.
고도 7000ft 상공 구름 보통

METAR: MSLP 250450Z VRB02KT 9999 FEW027 FEW040CB SCT070 27/25 Q1012 A2990 NOSIG RMK CB TO N/NE

시각: 23:07 (05:07 UTC)

예보

예보는 7 시간 42분 전, 21:25시(UTC)에 발표되었습니다.
예보 대상 시간: 25일 00시부터 25일 24시까지 (UTC)
여러 방향의 바람 3kt
시정 10km 이상
고도 2300ft 상공 구름 보통
고도 3300ft 상공 구름 조금, 적란운.
고도 7000ft 상공 구름 보통
일시적
25일 04시부터 25일 08시까지 (UTC)
시정: 4000m
고도 2300ft 상공 구름 많음
고도 3300ft 상공 구름 보통, 적란운.
뇌우, 비
25일 1200시부터 (UTC)
동북동3kt
시정 10km 이상
고도 2300ft 상공 구름 조금
25일 1800시부터 (UTC)
남서10kt
시정 10km 이상
고도 2300ft 상공 구름 보통
고도 3300ft 상공 구름 보통, 적란운.

TAF: MSLP 242125Z 2500/2524 VRB03KT 9999 SCT023 FEW033CB SCT070 TX33/2518Z TN23/2512Z TEMPO 2504/2508 0610KT 4000 TSRA BKN023 SCT033CB FM251200 06003KT 9999 FEW023 FM251800 22010KT 9999 SCT023 SCT033CB

4,000개 이상의 공항 관측 자료 및 예보 (METAR 및 TAF 보고).

지도상에서 검색 가능한 기상관측소가 노란 점과 빨간 점으로 표시되어 있습니다.

기상관측소 명을 보려면 표시 위로 마우스를 이동하세요.

날씨 관측과 예보를 보려면 클릭하세요.

지도 변경 : 확대하려면 엑스 표시가 있는 녹색 버튼, 축소하려면 빼기 표시가 있는 녹색 버튼, 다음 페이지의 지도를 보려면 녹색 화살표를 클릭하세요.


METAR-TAF: